createdAt,value
2023-02-26T00:00:45.401Z,92.21
2023-02-26T00:10:48.048Z,91.76
2023-02-26T00:20:49.380Z,92.60
2023-02-26T00:30:50.606Z,91.75
2023-02-26T00:40:54.178Z,91.91
2023-02-26T00:50:56.596Z,91.85
2023-02-26T01:00:57.846Z,91.86
2023-02-26T01:10:59.238Z,91.58
2023-02-26T01:21:00.468Z,90.57
2023-02-26T01:31:01.880Z,91.41
2023-02-26T01:41:03.296Z,92.84
2023-02-26T01:51:04.570Z,93.92
2023-02-26T02:01:05.852Z,93.48
2023-02-26T02:11:07.264Z,95.53
2023-02-26T02:21:08.474Z,97.51
2023-02-26T02:31:09.848Z,97.01
2023-02-26T02:41:11.280Z,98.17
2023-02-26T02:51:12.670Z,98.70
2023-02-26T03:01:13.950Z,100.00
2023-02-26T03:11:15.389Z,100.00
2023-02-26T03:21:16.637Z,100.00
2023-02-26T03:31:18.098Z,100.00
2023-02-26T03:41:19.435Z,100.00
2023-02-26T03:51:20.705Z,100.00
2023-02-26T04:01:21.977Z,100.00
2023-02-26T04:11:23.335Z,100.00
2023-02-26T04:21:24.648Z,100.00
2023-02-26T04:31:25.903Z,100.00
2023-02-26T04:41:27.133Z,100.00
2023-02-26T04:51:28.554Z,100.00
2023-02-26T05:01:32.128Z,100.00
2023-02-26T05:11:36.304Z,100.00
2023-02-26T05:21:37.547Z,100.00
2023-02-26T05:31:38.817Z,100.00
2023-02-26T05:41:40.122Z,100.00
2023-02-26T05:51:42.982Z,100.00
2023-02-26T06:01:44.361Z,100.00
2023-02-26T06:11:45.946Z,100.00
2023-02-26T06:21:47.173Z,100.00
2023-02-26T06:31:48.528Z,100.00
2023-02-26T06:41:49.807Z,100.00
2023-02-26T06:51:51.031Z,100.00
2023-02-26T07:01:52.402Z,100.00
2023-02-26T07:11:55.474Z,100.00
2023-02-26T07:21:56.756Z,100.00
2023-02-26T07:31:58.103Z,100.00
2023-02-26T07:41:59.392Z,100.00
2023-02-26T07:52:00.593Z,100.00
2023-02-26T08:02:02.083Z,100.00
2023-02-26T08:12:03.933Z,100.00
2023-02-26T08:22:05.168Z,100.00
2023-02-26T08:32:06.600Z,100.00
2023-02-26T08:42:07.893Z,100.00
2023-02-26T08:52:09.232Z,100.00
2023-02-26T09:02:13.465Z,100.00
2023-02-26T09:12:17.067Z,100.00
2023-02-26T09:22:18.285Z,100.00
2023-02-26T09:32:19.696Z,100.00
2023-02-26T09:42:21.052Z,98.14
2023-02-26T09:52:22.283Z,96.18
2023-02-26T10:02:23.574Z,94.31
2023-02-26T10:12:25.040Z,89.94
2023-02-26T10:22:26.273Z,89.24
2023-02-26T10:32:27.648Z,85.89
2023-02-26T10:42:29.003Z,85.38
2023-02-26T10:52:30.214Z,86.70
2023-02-26T11:02:31.451Z,86.22
2023-02-26T11:12:32.940Z,85.57
2023-02-26T11:22:34.316Z,83.71
2023-02-26T11:32:35.546Z,82.24
2023-02-26T11:42:36.799Z,81.48
2023-02-26T11:52:38.031Z,78.77
2023-02-26T12:02:39.349Z,81.38
2023-02-26T12:12:43.617Z,81.01
2023-02-26T12:22:44.963Z,77.29
2023-02-26T12:32:46.297Z,78.70
2023-02-26T12:42:47.535Z,75.85
2023-02-26T12:52:50.094Z,76.29
2023-02-26T13:02:51.529Z,71.06
2023-02-26T13:12:54.986Z,69.02
2023-02-26T13:22:56.500Z,65.75
2023-02-26T13:32:57.845Z,65.16
2023-02-26T13:42:59.083Z,64.76
2023-02-26T13:53:00.349Z,64.14
2023-02-26T14:03:01.834Z,60.44
2023-02-26T14:13:03.217Z,59.51
2023-02-26T14:23:04.433Z,62.22
2023-02-26T14:33:05.817Z,61.86
2023-02-26T14:43:07.115Z,61.20
2023-02-26T14:53:08.334Z,61.26
2023-02-26T15:03:09.594Z,61.18
2023-02-26T15:13:12.085Z,61.10
2023-02-26T15:23:13.380Z,61.71
2023-02-26T15:33:16.336Z,60.33
2023-02-26T15:43:17.573Z,60.41
2023-02-26T15:53:19.299Z,58.11
2023-02-26T16:03:20.552Z,58.18
2023-02-26T16:13:21.902Z,60.38
2023-02-26T16:23:23.167Z,60.72
2023-02-26T16:33:24.396Z,59.48
2023-02-26T16:43:25.717Z,60.66
2023-02-26T16:53:26.914Z,61.97
2023-02-26T17:03:28.239Z,60.31
2023-02-26T17:13:29.721Z,60.10
2023-02-26T17:23:31.105Z,61.06
2023-02-26T17:33:32.369Z,61.22
2023-02-26T17:43:33.608Z,60.77
2023-02-26T17:53:40.882Z,59.77
2023-02-26T18:03:43.344Z,60.72
2023-02-26T18:13:44.663Z,59.95
2023-02-26T18:23:45.876Z,60.04
2023-02-26T18:33:47.196Z,58.51
2023-02-26T18:43:48.401Z,59.55
2023-02-26T18:53:49.649Z,59.16
2023-02-26T19:03:50.929Z,59.56
2023-02-26T19:13:52.629Z,60.04
2023-02-26T19:23:54.181Z,61.07
2023-02-26T19:33:55.444Z,60.88
2023-02-26T19:43:56.728Z,61.30
2023-02-26T19:53:57.954Z,58.94
2023-02-26T20:03:59.238Z,58.29
2023-02-26T20:14:01.902Z,59.11
2023-02-26T20:24:03.221Z,59.76
2023-02-26T20:34:05.118Z,59.90
2023-02-26T20:44:06.362Z,61.03
2023-02-26T20:54:07.649Z,61.14
2023-02-26T21:04:08.946Z,61.49
2023-02-26T21:14:10.535Z,62.90
2023-02-26T21:24:11.844Z,64.09
2023-02-26T21:34:32.722Z,65.75
2023-02-26T21:44:34.425Z,67.55
2023-02-26T21:54:35.771Z,69.14
2023-02-26T22:04:37.048Z,71.02
2023-02-26T22:14:38.339Z,72.54
2023-02-26T22:24:40.981Z,74.13
2023-02-26T22:34:43.315Z,75.16
2023-02-26T22:44:45.959Z,75.65
2023-02-26T22:54:47.234Z,77.00
2023-02-26T23:04:48.500Z,78.15
2023-02-26T23:14:49.760Z,78.75
2023-02-26T23:24:50.954Z,78.69
2023-02-26T23:34:52.169Z,80.35
2023-02-26T23:44:53.562Z,81.55
2023-02-26T23:54:56.634Z,82.85
